HEW weather

CLOSED Athen Helenikon Airport
Athens, Attica, Greece

Public forecast

Using degrees Celsius for public forecast. Weather courtesy of forecast.io.

METAR (pilot weather report)

Closest report is Eleftherios Venizelos International Airport, 10.7 nm (19.7 km) ENE. Retrieved 2019/04/21 07:20 UTC (35 minutes ago):

LGAV 210720Z 03008KT 350V060 9999 FEW020 14/01 Q1026 NOSIG

TAF (pilot weather forecast)

Closest forecast is Eleftherios Venizelos International Airport, 10.7 nm (19.7 km) ENE. Retrieved 2019/04/21 06:12 UTC (2 hours ago):

TAF TAF LGAV 210500Z 2106/2206 VRB05KT 9999 FEW025 BECMG 2106/2108 03015KT BECMG 2116/2118 VRB05KT